sensor_id;sensor_type;location;lat;lon;timestamp;P1;durP1;ratioP1;P2;durP2;ratioP2
13204;SDS011;6667;52.634;9.226;2022-10-03T08:22:10;7.00;;;1.80;;
13204;SDS011;6667;52.634;9.226;2022-10-03T08:24:49;7.13;;;1.73;;
13204;SDS011;6667;52.634;9.226;2022-10-03T08:27:39;6.97;;;1.50;;
13204;SDS011;6667;52.634;9.226;2022-10-03T08:30:19;11.23;;;2.23;;
13204;SDS011;6667;52.634;9.226;2022-10-03T08:32:52;8.07;;;1.97;;
13204;SDS011;6667;52.634;9.226;2022-10-03T08:38:57;6.67;;;2.33;;
13204;SDS011;6667;52.634;9.226;2022-10-03T08:44:37;9.20;;;2.00;;
13204;SDS011;6667;52.634;9.226;2022-10-03T08:47:24;10.47;;;2.33;;
13204;SDS011;6667;52.634;9.226;2022-10-03T08:50:24;7.07;;;2.13;;
13204;SDS011;6667;52.634;9.226;2022-10-03T08:56:14;11.00;;;2.03;;
13204;SDS011;6667;52.634;9.226;2022-10-03T09:01:57;6.23;;;1.80;;
13204;SDS011;6667;52.634;9.226;2022-10-03T09:04:52;4.37;;;1.70;;
13204;SDS011;6667;52.634;9.226;2022-10-03T09:07:52;4.47;;;2.03;;
13204;SDS011;6667;52.634;9.226;2022-10-03T09:10:51;5.40;;;1.77;;
13204;SDS011;6667;52.634;9.226;2022-10-03T09:13:57;8.50;;;1.50;;
13204;SDS011;6667;52.634;9.226;2022-10-03T09:16:58;9.52;;;2.40;;
13204;SDS011;6667;52.634;9.226;2022-10-03T09:19:44;5.80;;;1.67;;
13204;SDS011;6667;52.634;9.226;2022-10-03T09:22:45;8.52;;;1.60;;
13204;SDS011;6667;52.634;9.226;2022-10-03T09:25:34;6.28;;;1.40;;
13204;SDS011;6667;52.634;9.226;2022-10-03T09:31:19;7.28;;;1.63;;
13204;SDS011;6667;52.634;9.226;2022-10-03T09:34:12;7.18;;;1.50;;
13204;SDS011;6667;52.634;9.226;2022-10-03T09:37:12;9.65;;;2.05;;
13204;SDS011;6667;52.634;9.226;2022-10-03T09:43:10;5.80;;;1.60;;
13204;SDS011;6667;52.634;9.226;2022-10-03T09:49:12;5.85;;;1.40;;
13204;SDS011;6667;52.634;9.226;2022-10-03T09:52:08;7.72;;;1.70;;
13204;SDS011;6667;52.634;9.226;2022-10-03T10:01:11;8.20;;;1.85;;
13204;SDS011;6667;52.634;9.226;2022-10-03T10:07:05;4.65;;;1.40;;
13204;SDS011;6667;52.634;9.226;2022-10-03T10:10:04;4.97;;;1.70;;
13204;SDS011;6667;52.634;9.226;2022-10-03T10:15:55;7.88;;;1.85;;
13204;SDS011;6667;52.634;9.226;2022-10-03T10:21:58;6.28;;;1.52;;
13204;SDS011;6667;52.634;9.226;2022-10-03T10:24:53;4.18;;;1.05;;
13204;SDS011;6667;52.634;9.226;2022-10-03T10:31:10;7.80;;;1.98;;
13204;SDS011;6667;52.634;9.226;2022-10-03T10:37:25;5.20;;;2.10;;
13204;SDS011;6667;52.634;9.226;2022-10-03T10:43:19;3.65;;;1.15;;
13204;SDS011;6667;52.634;9.226;2022-10-03T10:46:20;4.05;;;1.20;;
13204;SDS011;6667;52.634;9.226;2022-10-03T10:49:35;3.72;;;1.33;;
13204;SDS011;6667;52.634;9.226;2022-10-03T10:52:30;2.88;;;1.30;;
13204;SDS011;6667;52.634;9.226;2022-10-03T10:58:35;6.03;;;1.35;;
13204;SDS011;6667;52.634;9.226;2022-10-03T11:05:05;3.80;;;1.35;;
13204;SDS011;6667;52.634;9.226;2022-10-03T11:08:28;2.22;;;1.13;;
13204;SDS011;6667;52.634;9.226;2022-10-03T11:14:50;5.45;;;1.40;;
13204;SDS011;6667;52.634;9.226;2022-10-03T11:20:53;4.15;;;1.38;;
13204;SDS011;6667;52.634;9.226;2022-10-03T11:30:05;4.43;;;0.95;;
13204;SDS011;6667;52.634;9.226;2022-10-03T11:32:57;4.95;;;1.50;;
13204;SDS011;6667;52.634;9.226;2022-10-03T11:36:02;3.30;;;1.27;;
13204;SDS011;6667;52.634;9.226;2022-10-03T11:38:53;4.68;;;1.05;;
13204;SDS011;6667;52.634;9.226;2022-10-03T11:41:31;3.20;;;1.05;;
13204;SDS011;6667;52.634;9.226;2022-10-03T11:44:07;4.60;;;1.42;;
13204;SDS011;6667;52.634;9.226;2022-10-03T11:46:59;5.93;;;2.10;;
13204;SDS011;6667;52.634;9.226;2022-10-03T11:49:53;5.57;;;1.50;;
13204;SDS011;6667;52.634;9.226;2022-10-03T11:52:41;2.42;;;1.23;;
13204;SDS011;6667;52.634;9.226;2022-10-03T11:55:19;5.70;;;1.45;;
13204;SDS011;6667;52.634;9.226;2022-10-03T11:57:57;5.53;;;1.33;;
13204;SDS011;6667;52.634;9.226;2022-10-03T12:00:36;7.05;;;3.40;;
13204;SDS011;6667;52.634;9.226;2022-10-03T12:03:09;4.57;;;1.60;;
13204;SDS011;6667;52.634;9.226;2022-10-03T12:05:47;9.23;;;3.28;;
13204;SDS011;6667;52.634;9.226;2022-10-03T12:08:38;3.75;;;1.30;;
13204;SDS011;6667;52.634;9.226;2022-10-03T12:11:19;4.30;;;1.33;;
13204;SDS011;6667;52.634;9.226;2022-10-03T12:14:00;3.45;;;1.50;;
13204;SDS011;6667;52.634;9.226;2022-10-03T12:16:38;3.85;;;1.00;;
13204;SDS011;6667;52.634;9.226;2022-10-03T12:19:20;4.53;;;1.90;;
13204;SDS011;6667;52.634;9.226;2022-10-03T12:21:56;6.13;;;1.10;;
13204;SDS011;6667;52.634;9.226;2022-10-03T12:24:29;2.47;;;1.05;;
13204;SDS011;6667;52.634;9.226;2022-10-03T12:27:02;4.00;;;1.40;;
13204;SDS011;6667;52.634;9.226;2022-10-03T12:29:36;3.40;;;1.23;;
13204;SDS011;6667;52.634;9.226;2022-10-03T12:32:15;3.42;;;1.08;;
13204;SDS011;6667;52.634;9.226;2022-10-03T12:34:49;3.78;;;1.42;;
13204;SDS011;6667;52.634;9.226;2022-10-03T12:40:18;3.90;;;1.20;;
13204;SDS011;6667;52.634;9.226;2022-10-03T12:42:54;4.03;;;1.30;;
13204;SDS011;6667;52.634;9.226;2022-10-03T12:45:30;3.63;;;1.02;;
13204;SDS011;6667;52.634;9.226;2022-10-03T12:48:04;4.13;;;1.30;;
13204;SDS011;6667;52.634;9.226;2022-10-03T12:50:46;7.90;;;4.68;;
13204;SDS011;6667;52.634;9.226;2022-10-03T12:53:26;5.63;;;1.90;;
13204;SDS011;6667;52.634;9.226;2022-10-03T12:56:02;3.50;;;0.95;;
13204;SDS011;6667;52.634;9.226;2022-10-03T12:58:42;3.05;;;1.10;;
13204;SDS011;6667;52.634;9.226;2022-10-03T13:01:25;4.28;;;1.10;;
13204;SDS011;6667;52.634;9.226;2022-10-03T13:04:00;3.67;;;1.13;;
13204;SDS011;6667;52.634;9.226;2022-10-03T13:06:44;2.88;;;1.30;;
13204;SDS011;6667;52.634;9.226;2022-10-03T13:09:23;3.08;;;1.35;;
13204;SDS011;6667;52.634;9.226;2022-10-03T13:12:02;2.50;;;1.27;;
13204;SDS011;6667;52.634;9.226;2022-10-03T13:14:38;2.55;;;1.10;;
13204;SDS011;6667;52.634;9.226;2022-10-03T13:17:30;3.70;;;1.13;;
13204;SDS011;6667;52.634;9.226;2022-10-03T13:20:03;2.83;;;0.90;;
13204;SDS011;6667;52.634;9.226;2022-10-03T13:22:39;2.38;;;1.02;;
13204;SDS011;6667;52.634;9.226;2022-10-03T13:25:13;1.98;;;1.08;;
13204;SDS011;6667;52.634;9.226;2022-10-03T13:27:46;2.88;;;1.35;;
13204;SDS011;6667;52.634;9.226;2022-10-03T13:30:18;4.80;;;1.10;;
13204;SDS011;6667;52.634;9.226;2022-10-03T13:32:49;3.33;;;0.98;;
13204;SDS011;6667;52.634;9.226;2022-10-03T13:35:24;4.20;;;1.20;;
13204;SDS011;6667;52.634;9.226;2022-10-03T13:41:16;3.03;;;1.90;;
13204;SDS011;6667;52.634;9.226;2022-10-03T13:43:50;2.10;;;0.70;;
13204;SDS011;6667;52.634;9.226;2022-10-03T13:46:25;3.50;;;1.20;;
13204;SDS011;6667;52.634;9.226;2022-10-03T13:48:59;3.53;;;1.10;;
13204;SDS011;6667;52.634;9.226;2022-10-03T13:51:37;3.72;;;1.02;;
13204;SDS011;6667;52.634;9.226;2022-10-03T13:54:12;5.25;;;1.00;;
13204;SDS011;6667;52.634;9.226;2022-10-03T13:56:47;1.65;;;0.82;;
13204;SDS011;6667;52.634;9.226;2022-10-03T14:02:11;4.88;;;0.85;;
13204;SDS011;6667;52.634;9.226;2022-10-03T14:05:09;3.30;;;1.35;;
13204;SDS011;6667;52.634;9.226;2022-10-03T14:07:51;4.05;;;0.90;;
13204;SDS011;6667;52.634;9.226;2022-10-03T14:10:43;4.65;;;0.93;;
13204;SDS011;6667;52.634;9.226;2022-10-03T14:13:28;3.72;;;1.08;;
13204;SDS011;6667;52.634;9.226;2022-10-03T14:16:03;4.10;;;1.05;;
13204;SDS011;6667;52.634;9.226;2022-10-03T14:18:44;2.85;;;1.20;;
13204;SDS011;6667;52.634;9.226;2022-10-03T14:21:24;7.53;;;2.75;;
13204;SDS011;6667;52.634;9.226;2022-10-03T14:24:04;5.95;;;2.17;;
13204;SDS011;6667;52.634;9.226;2022-10-03T14:26:44;3.70;;;1.27;;
13204;SDS011;6667;52.634;9.226;2022-10-03T14:29:18;4.43;;;1.00;;
13204;SDS011;6667;52.634;9.226;2022-10-03T14:31:50;4.45;;;1.20;;
13204;SDS011;6667;52.634;9.226;2022-10-03T14:34:26;4.95;;;1.15;;
13204;SDS011;6667;52.634;9.226;2022-10-03T14:37:06;5.32;;;1.65;;
13204;SDS011;6667;52.634;9.226;2022-10-03T14:39:42;2.63;;;1.10;;
13204;SDS011;6667;52.634;9.226;2022-10-03T14:45:28;2.47;;;1.00;;
13204;SDS011;6667;52.634;9.226;2022-10-03T14:48:01;3.05;;;1.13;;
13204;SDS011;6667;52.634;9.226;2022-10-03T14:50:32;4.07;;;1.10;;
13204;SDS011;6667;52.634;9.226;2022-10-03T14:53:04;3.67;;;1.33;;
13204;SDS011;6667;52.634;9.226;2022-10-03T14:55:38;3.95;;;1.10;;
13204;SDS011;6667;52.634;9.226;2022-10-03T14:58:15;3.67;;;1.40;;
13204;SDS011;6667;52.634;9.226;2022-10-03T15:00:45;2.10;;;1.02;;
13204;SDS011;6667;52.634;9.226;2022-10-03T15:03:20;3.17;;;1.15;;
13204;SDS011;6667;52.634;9.226;2022-10-03T15:05:57;4.53;;;1.88;;
13204;SDS011;6667;52.634;9.226;2022-10-03T15:08:43;4.72;;;1.70;;
13204;SDS011;6667;52.634;9.226;2022-10-03T15:11:13;2.35;;;1.10;;
13204;SDS011;6667;52.634;9.226;2022-10-03T15:13:43;2.63;;;1.00;;
13204;SDS011;6667;52.634;9.226;2022-10-03T15:16:15;3.65;;;1.55;;
13204;SDS011;6667;52.634;9.226;2022-10-03T15:18:48;2.65;;;1.20;;
13204;SDS011;6667;52.634;9.226;2022-10-03T15:21:18;2.85;;;1.23;;
13204;SDS011;6667;52.634;9.226;2022-10-03T15:23:46;2.15;;;1.33;;
13204;SDS011;6667;52.634;9.226;2022-10-03T15:26:18;4.28;;;1.67;;
13204;SDS011;6667;52.634;9.226;2022-10-03T15:28:51;3.60;;;1.63;;
13204;SDS011;6667;52.634;9.226;2022-10-03T15:31:25;3.47;;;1.23;;
13204;SDS011;6667;52.634;9.226;2022-10-03T15:33:57;2.75;;;1.00;;
13204;SDS011;6667;52.634;9.226;2022-10-03T15:36:28;3.00;;;1.45;;
13204;SDS011;6667;52.634;9.226;2022-10-03T15:39:01;3.95;;;1.17;;
13204;SDS011;6667;52.634;9.226;2022-10-03T15:41:31;2.78;;;1.45;;
13204;SDS011;6667;52.634;9.226;2022-10-03T15:44:03;4.38;;;1.55;;
13204;SDS011;6667;52.634;9.226;2022-10-03T15:46:38;7.28;;;1.73;;
13204;SDS011;6667;52.634;9.226;2022-10-03T15:49:10;3.90;;;1.70;;
13204;SDS011;6667;52.634;9.226;2022-10-03T15:51:44;5.65;;;1.13;;
13204;SDS011;6667;52.634;9.226;2022-10-03T15:54:14;2.25;;;1.08;;
13204;SDS011;6667;52.634;9.226;2022-10-03T15:56:48;2.90;;;0.90;;
13204;SDS011;6667;52.634;9.226;2022-10-03T15:59:19;4.07;;;1.17;;
13204;SDS011;6667;52.634;9.226;2022-10-03T16:01:48;6.47;;;1.73;;
13204;SDS011;6667;52.634;9.226;2022-10-03T16:04:18;7.30;;;1.35;;
13204;SDS011;6667;52.634;9.226;2022-10-03T16:06:49;3.58;;;1.10;;
13204;SDS011;6667;52.634;9.226;2022-10-03T16:09:28;2.40;;;0.98;;
13204;SDS011;6667;52.634;9.226;2022-10-03T16:15:05;2.85;;;1.30;;
13204;SDS011;6667;52.634;9.226;2022-10-03T16:17:42;3.78;;;1.60;;
13204;SDS011;6667;52.634;9.226;2022-10-03T16:20:14;8.40;;;1.50;;
13204;SDS011;6667;52.634;9.226;2022-10-03T16:22:46;2.75;;;1.13;;
13204;SDS011;6667;52.634;9.226;2022-10-03T16:25:17;2.75;;;1.38;;
13204;SDS011;6667;52.634;9.226;2022-10-03T16:27:45;3.28;;;1.20;;
13204;SDS011;6667;52.634;9.226;2022-10-03T16:30:21;4.82;;;1.35;;
13204;SDS011;6667;52.634;9.226;2022-10-03T16:32:51;3.70;;;1.40;;
13204;SDS011;6667;52.634;9.226;2022-10-03T16:35:30;3.55;;;1.23;;
13204;SDS011;6667;52.634;9.226;2022-10-03T16:38:01;6.23;;;1.07;;
13204;SDS011;6667;52.634;9.226;2022-10-03T16:40:33;3.00;;;1.23;;
13204;SDS011;6667;52.634;9.226;2022-10-03T16:43:02;5.17;;;1.30;;
13204;SDS011;6667;52.634;9.226;2022-10-03T16:45:35;4.97;;;1.33;;
13204;SDS011;6667;52.634;9.226;2022-10-03T16:48:09;5.82;;;1.83;;
13204;SDS011;6667;52.634;9.226;2022-10-03T16:50:56;6.35;;;1.08;;
13204;SDS011;6667;52.634;9.226;2022-10-03T16:53:23;2.97;;;1.08;;
13204;SDS011;6667;52.634;9.226;2022-10-03T16:55:51;6.17;;;1.33;;
13204;SDS011;6667;52.634;9.226;2022-10-03T16:58:21;4.63;;;1.43;;
13204;SDS011;6667;52.634;9.226;2022-10-03T17:00:54;4.93;;;1.00;;
13204;SDS011;6667;52.634;9.226;2022-10-03T17:03:27;4.90;;;1.10;;
13204;SDS011;6667;52.634;9.226;2022-10-03T17:05:57;2.37;;;1.50;;
13204;SDS011;6667;52.634;9.226;2022-10-03T17:08:26;3.30;;;1.20;;
13204;SDS011;6667;52.634;9.226;2022-10-03T17:10:57;2.92;;;1.40;;
13204;SDS011;6667;52.634;9.226;2022-10-03T17:13:27;3.47;;;1.60;;
13204;SDS011;6667;52.634;9.226;2022-10-03T17:16:02;3.37;;;1.83;;
13204;SDS011;6667;52.634;9.226;2022-10-03T17:18:38;2.87;;;1.53;;
13204;SDS011;6667;52.634;9.226;2022-10-03T17:21:12;5.37;;;1.80;;
13204;SDS011;6667;52.634;9.226;2022-10-03T17:23:48;3.13;;;1.50;;
13204;SDS011;6667;52.634;9.226;2022-10-03T17:26:29;2.07;;;1.50;;
13204;SDS011;6667;52.634;9.226;2022-10-03T17:29:02;3.97;;;1.67;;
13204;SDS011;6667;52.634;9.226;2022-10-03T17:31:40;7.30;;;1.53;;
13204;SDS011;6667;52.634;9.226;2022-10-03T17:34:12;3.77;;;1.63;;
13204;SDS011;6667;52.634;9.226;2022-10-03T17:37:04;5.47;;;1.37;;
13204;SDS011;6667;52.634;9.226;2022-10-03T17:39:41;4.10;;;1.30;;
13204;SDS011;6667;52.634;9.226;2022-10-03T17:45:09;5.43;;;1.60;;
13204;SDS011;6667;52.634;9.226;2022-10-03T17:47:50;3.77;;;1.50;;
13204;SDS011;6667;52.634;9.226;2022-10-03T17:50:22;4.30;;;1.63;;
13204;SDS011;6667;52.634;9.226;2022-10-03T17:52:55;4.47;;;1.60;;
13204;SDS011;6667;52.634;9.226;2022-10-03T17:55:25;5.73;;;1.70;;
13204;SDS011;6667;52.634;9.226;2022-10-03T17:57:57;4.50;;;2.13;;
13204;SDS011;6667;52.634;9.226;2022-10-03T18:00:28;4.13;;;1.77;;
13204;SDS011;6667;52.634;9.226;2022-10-03T18:03:01;2.53;;;1.50;;
13204;SDS011;6667;52.634;9.226;2022-10-03T18:05:33;4.57;;;1.80;;
13204;SDS011;6667;52.634;9.226;2022-10-03T18:08:05;2.60;;;1.73;;
13204;SDS011;6667;52.634;9.226;2022-10-03T18:10:37;3.60;;;1.73;;
13204;SDS011;6667;52.634;9.226;2022-10-03T18:13:13;8.20;;;2.23;;
13204;SDS011;6667;52.634;9.226;2022-10-03T18:18:59;4.17;;;1.30;;
13204;SDS011;6667;52.634;9.226;2022-10-03T18:21:54;4.03;;;1.70;;
13204;SDS011;6667;52.634;9.226;2022-10-03T18:24:34;2.47;;;1.40;;
13204;SDS011;6667;52.634;9.226;2022-10-03T18:27:19;6.17;;;2.20;;
13204;SDS011;6667;52.634;9.226;2022-10-03T18:30:20;3.33;;;1.40;;
13204;SDS011;6667;52.634;9.226;2022-10-03T18:32:53;5.70;;;2.20;;
13204;SDS011;6667;52.634;9.226;2022-10-03T18:35:23;5.00;;;2.13;;
13204;SDS011;6667;52.634;9.226;2022-10-03T18:37:55;5.97;;;2.20;;
13204;SDS011;6667;52.634;9.226;2022-10-03T18:40:30;4.77;;;2.23;;
13204;SDS011;6667;52.634;9.226;2022-10-03T18:42:59;6.33;;;2.20;;
13204;SDS011;6667;52.634;9.226;2022-10-03T18:45:29;4.03;;;2.07;;
13204;SDS011;6667;52.634;9.226;2022-10-03T18:48:04;8.27;;;2.90;;
13204;SDS011;6667;52.634;9.226;2022-10-03T18:50:42;9.17;;;3.30;;
13204;SDS011;6667;52.634;9.226;2022-10-03T18:53:19;6.80;;;2.50;;
13204;SDS011;6667;52.634;9.226;2022-10-03T18:55:54;7.23;;;2.40;;
13204;SDS011;6667;52.634;9.226;2022-10-03T18:58:28;4.53;;;1.67;;
13204;SDS011;6667;52.634;9.226;2022-10-03T19:01:00;3.20;;;1.77;;
13204;SDS011;6667;52.634;9.226;2022-10-03T19:03:32;4.40;;;1.37;;
13204;SDS011;6667;52.634;9.226;2022-10-03T19:06:03;3.27;;;1.67;;
13204;SDS011;6667;52.634;9.226;2022-10-03T19:08:34;4.23;;;1.80;;
13204;SDS011;6667;52.634;9.226;2022-10-03T19:11:08;6.53;;;2.73;;
13204;SDS011;6667;52.634;9.226;2022-10-03T19:13:41;3.10;;;1.70;;
13204;SDS011;6667;52.634;9.226;2022-10-03T19:19:09;4.40;;;1.77;;
13204;SDS011;6667;52.634;9.226;2022-10-03T19:21:41;2.77;;;1.90;;
13204;SDS011;6667;52.634;9.226;2022-10-03T19:24:10;10.20;;;3.53;;
13204;SDS011;6667;52.634;9.226;2022-10-03T19:26:43;10.50;;;4.77;;
13204;SDS011;6667;52.634;9.226;2022-10-03T19:29:12;10.70;;;4.77;;
13204;SDS011;6667;52.634;9.226;2022-10-03T19:31:51;8.87;;;4.20;;
13204;SDS011;6667;52.634;9.226;2022-10-03T19:34:23;7.37;;;2.40;;
13204;SDS011;6667;52.634;9.226;2022-10-03T19:36:59;4.30;;;1.80;;
13204;SDS011;6667;52.634;9.226;2022-10-03T19:39:26;3.73;;;1.70;;
13204;SDS011;6667;52.634;9.226;2022-10-03T19:41:59;2.43;;;1.30;;
13204;SDS011;6667;52.634;9.226;2022-10-03T19:44:45;4.93;;;1.50;;
13204;SDS011;6667;52.634;9.226;2022-10-03T19:47:13;4.13;;;1.67;;
13204;SDS011;6667;52.634;9.226;2022-10-03T19:49:51;4.40;;;1.83;;
13204;SDS011;6667;52.634;9.226;2022-10-03T19:52:26;4.93;;;1.87;;
13204;SDS011;6667;52.634;9.226;2022-10-03T19:54:58;3.07;;;1.90;;
13204;SDS011;6667;52.634;9.226;2022-10-03T19:57:39;5.23;;;1.93;;
13204;SDS011;6667;52.634;9.226;2022-10-03T20:00:18;5.10;;;1.93;;
13204;SDS011;6667;52.634;9.226;2022-10-03T20:02:52;3.33;;;2.00;;
13204;SDS011;6667;52.634;9.226;2022-10-03T20:05:22;5.40;;;1.63;;
13204;SDS011;6667;52.634;9.226;2022-10-03T20:07:55;6.20;;;1.70;;
13204;SDS011;6667;52.634;9.226;2022-10-03T20:10:36;6.53;;;1.80;;
13204;SDS011;6667;52.634;9.226;2022-10-03T20:13:09;3.93;;;1.47;;
13204;SDS011;6667;52.634;9.226;2022-10-03T20:15:39;3.20;;;1.60;;
13204;SDS011;6667;52.634;9.226;2022-10-03T20:18:11;5.70;;;1.93;;
13204;SDS011;6667;52.634;9.226;2022-10-03T20:20:46;4.17;;;1.70;;
13204;SDS011;6667;52.634;9.226;2022-10-03T20:23:16;3.27;;;2.00;;
13204;SDS011;6667;52.634;9.226;2022-10-03T20:25:48;6.00;;;2.37;;
13204;SDS011;6667;52.634;9.226;2022-10-03T20:28:19;5.50;;;1.90;;
13204;SDS011;6667;52.634;9.226;2022-10-03T20:30:48;4.97;;;2.07;;
13204;SDS011;6667;52.634;9.226;2022-10-03T20:33:17;5.97;;;2.30;;
13204;SDS011;6667;52.634;9.226;2022-10-03T20:35:50;3.53;;;2.00;;
13204;SDS011;6667;52.634;9.226;2022-10-03T20:38:24;4.67;;;2.00;;
13204;SDS011;6667;52.634;9.226;2022-10-03T20:40:58;5.50;;;2.10;;
13204;SDS011;6667;52.634;9.226;2022-10-03T20:43:34;6.63;;;2.67;;
13204;SDS011;6667;52.634;9.226;2022-10-03T20:46:07;6.33;;;2.47;;
13204;SDS011;6667;52.634;9.226;2022-10-03T20:48:45;7.27;;;4.07;;
13204;SDS011;6667;52.634;9.226;2022-10-03T20:51:36;7.60;;;3.30;;
13204;SDS011;6667;52.634;9.226;2022-10-03T20:54:08;5.03;;;2.23;;
13204;SDS011;6667;52.634;9.226;2022-10-03T20:56:38;4.30;;;1.93;;
13204;SDS011;6667;52.634;9.226;2022-10-03T20:59:14;5.40;;;2.13;;
13204;SDS011;6667;52.634;9.226;2022-10-03T21:01:45;5.80;;;2.50;;
13204;SDS011;6667;52.634;9.226;2022-10-03T21:04:23;4.67;;;2.23;;
13204;SDS011;6667;52.634;9.226;2022-10-03T21:06:55;5.60;;;2.23;;
13204;SDS011;6667;52.634;9.226;2022-10-03T21:09:32;5.97;;;2.47;;
13204;SDS011;6667;52.634;9.226;2022-10-03T21:12:05;8.10;;;2.57;;
13204;SDS011;6667;52.634;9.226;2022-10-03T21:14:40;1.97;;;1.77;;
13204;SDS011;6667;52.634;9.226;2022-10-03T21:17:12;4.13;;;2.00;;
13204;SDS011;6667;52.634;9.226;2022-10-03T21:19:41;4.60;;;1.97;;
13204;SDS011;6667;52.634;9.226;2022-10-03T21:22:14;3.80;;;1.80;;
13204;SDS011;6667;52.634;9.226;2022-10-03T21:24:46;3.37;;;2.10;;
13204;SDS011;6667;52.634;9.226;2022-10-03T21:27:19;5.47;;;1.90;;
13204;SDS011;6667;52.634;9.226;2022-10-03T21:29:53;2.17;;;1.80;;
13204;SDS011;6667;52.634;9.226;2022-10-03T21:32:26;5.13;;;2.13;;
13204;SDS011;6667;52.634;9.226;2022-10-03T21:35:14;6.37;;;2.43;;
